CPR9 weather

Fergus (Royland Field)
Ontario, Canada

Public forecast

Using degrees Celsius for public forecast. Weather courtesy of forecast.io.

Closest aviation weather report (METAR) to Fergus (Royland Field)

Closest report is Waterloo Airport, 16.9 nm (31.2 km) S. Retrieved 2019/10/22 05:36 UTC (0 seconds ago):

CYKF 220536Z AUTO 12006KT 2 1/2SM RA BR BKN035 OVC043 12/11 A2975 RMK PRESFR SLP078

Closest aviation forecast (TAF) to Fergus (Royland Field)

Closest forecast is Waterloo Airport, 16.9 nm (31.2 km) S. Retrieved 2019-10-22 02:45 UTC (3 hours ago):

TAF TAF CYKF 220142Z 2202/2214 09012G22KT P6SM BKN060 OVC080 TEMPO 2202/2204 P6SM -SHRA OVC050 FM220400 15013G23KT P6SM -RA OVC030 TEMPO 2204/2207 3SM -RA BR OVC020 PROB30 2204/2207 2SM RA BR OVC006 FM220700 18010G20KT 11/2SM RA BR OVC004 TEMPO 2207/2210 4SM -RA BR OVC008 FM221000 18012G22KT 21/2SM -RA BR OVC005 TEMPO 2210/2214 5SM -RA BR OVC010 BECMG 2212/2214 20012G22KT RMK FCST BASED ON AUTO OBS NXT FCST BY 220800Z